createdAt,value
2018-12-12T00:01:25.015Z,100547.94
2018-12-12T00:03:52.439Z,100552.73
2018-12-12T00:06:19.952Z,100554.32
2018-12-12T00:08:48.151Z,100563.83
2018-12-12T00:11:15.571Z,100556.86
2018-12-12T00:13:43.052Z,100552.54
2018-12-12T00:16:10.475Z,100552.66
2018-12-12T00:18:38.662Z,100553.94
2018-12-12T00:21:06.140Z,100557.17
2018-12-12T00:23:33.884Z,100551.86
2018-12-12T00:26:01.371Z,100553.25
2018-12-12T00:28:28.791Z,100550.78
2018-12-12T00:30:56.280Z,100555.09
2018-12-12T00:33:24.428Z,100561.10
2018-12-12T00:35:51.847Z,100545.08
2018-12-12T00:38:19.251Z,100561.18
2018-12-12T00:40:46.683Z,100559.73
2018-12-12T00:43:15.009Z,100552.25
2018-12-12T00:45:42.447Z,100556.27
2018-12-12T00:48:09.871Z,100558.55
2018-12-12T00:50:37.466Z,100556.97
2018-12-12T00:53:04.884Z,100568.94
2018-12-12T00:55:32.370Z,100564.14
2018-12-12T00:57:59.836Z,100571.80
2018-12-12T01:00:27.312Z,100567.58
2018-12-12T01:02:55.098Z,100573.08
2018-12-12T01:05:22.520Z,100579.34
2018-12-12T01:07:50.395Z,100578.27
2018-12-12T01:10:17.814Z,100569.52
2018-12-12T01:12:45.278Z,100582.20
2018-12-12T01:15:12.716Z,100584.38
2018-12-12T01:17:40.144Z,100588.98
2018-12-12T01:20:07.561Z,100597.61
2018-12-12T01:22:35.014Z,100596.17
2018-12-12T01:25:02.480Z,100599.69
2018-12-12T01:27:29.952Z,100594.47
2018-12-12T01:29:58.099Z,100602.75
2018-12-12T01:32:25.583Z,100599.97
2018-12-12T01:34:53.232Z,100602.44
2018-12-12T01:37:20.691Z,100598.03
2018-12-12T01:39:48.151Z,100598.00
2018-12-12T01:42:15.619Z,100603.22
2018-12-12T01:44:43.051Z,100594.09
2018-12-12T01:47:10.471Z,100600.28
2018-12-12T01:49:38.806Z,100601.44
2018-12-12T01:52:06.267Z,100600.74
2018-12-12T01:54:33.728Z,100602.63
2018-12-12T01:57:01.213Z,100613.73
2018-12-12T01:59:28.743Z,100615.02
2018-12-12T02:01:56.207Z,100613.93
2018-12-12T02:04:24.152Z,100609.41
2018-12-12T02:06:51.627Z,100622.29
2018-12-12T02:09:19.037Z,100622.37
2018-12-12T02:11:46.547Z,100624.92
2018-12-12T02:14:13.977Z,100626.50
2018-12-12T02:16:41.461Z,100629.06
2018-12-12T02:19:08.932Z,100633.00
2018-12-12T02:21:36.376Z,100633.08
2018-12-12T02:24:04.721Z,100636.14
2018-12-12T02:26:32.216Z,100641.13
2018-12-12T02:28:59.637Z,100638.97
2018-12-12T02:31:27.076Z,100640.78
2018-12-12T02:33:55.324Z,100644.19
2018-12-12T02:36:22.874Z,100637.22
2018-12-12T02:38:50.287Z,100647.90
2018-12-12T02:41:17.711Z,100644.58
2018-12-12T02:43:45.137Z,100649.38
2018-12-12T02:46:12.559Z,100652.51
2018-12-12T02:48:40.051Z,100656.38
2018-12-12T02:51:07.479Z,100654.40
2018-12-12T02:53:35.457Z,100652.51
2018-12-12T02:56:02.879Z,100652.93
2018-12-12T02:58:30.388Z,100646.63
2018-12-12T03:00:57.949Z,100646.12
2018-12-12T03:03:25.843Z,100657.61
2018-12-12T03:05:53.274Z,100647.78
2018-12-12T03:08:20.831Z,100652.35
2018-12-12T03:10:48.247Z,100653.47
2018-12-12T03:13:15.680Z,100655.06
2018-12-12T03:15:43.466Z,100657.73
2018-12-12T03:18:10.973Z,100665.45
2018-12-12T03:20:38.532Z,100670.06
2018-12-12T03:23:05.981Z,100664.06
2018-12-12T03:25:33.556Z,100670.45
2018-12-12T03:28:01.016Z,100678.67
2018-12-12T03:30:28.561Z,100673.06
2018-12-12T03:32:56.026Z,100675.30
2018-12-12T03:35:23.515Z,100675.10
2018-12-12T03:37:50.944Z,100673.91
2018-12-12T03:40:18.915Z,100678.94
2018-12-12T03:42:46.687Z,100682.20
2018-12-12T03:45:14.112Z,100684.05
2018-12-12T03:47:41.550Z,100680.91
2018-12-12T03:50:09.149Z,100682.06
2018-12-12T03:52:36.630Z,100684.44
2018-12-12T03:55:04.060Z,100678.74
2018-12-12T03:57:31.533Z,100687.48
2018-12-12T03:59:59.014Z,100681.68
2018-12-12T04:02:26.540Z,100682.38
2018-12-12T04:04:54.891Z,100695.22
2018-12-12T04:07:22.314Z,100695.66
2018-12-12T04:09:49.831Z,100696.23
2018-12-12T04:12:17.288Z,100696.73
2018-12-12T04:14:44.971Z,100696.94
2018-12-12T04:17:12.415Z,100691.26
2018-12-12T04:19:39.875Z,100696.73
2018-12-12T04:22:07.307Z,100694.83
2018-12-12T04:24:35.091Z,100695.53
2018-12-12T04:27:02.541Z,100698.86
2018-12-12T04:29:30.885Z,100700.56
2018-12-12T04:31:58.311Z,100701.00
2018-12-12T04:34:26.311Z,100707.08
2018-12-12T04:36:53.817Z,100707.06
2018-12-12T04:39:21.269Z,100711.47
2018-12-12T04:41:48.723Z,100720.78
2018-12-12T04:44:16.143Z,100716.32
2018-12-12T04:46:43.642Z,100721.95
2018-12-12T04:49:11.114Z,100719.52
2018-12-12T04:51:38.664Z,100717.34
2018-12-12T04:54:06.139Z,100720.78
2018-12-12T04:56:33.578Z,100727.44
2018-12-12T04:59:01.305Z,100724.63
2018-12-12T05:01:28.729Z,100726.30
2018-12-12T05:03:56.151Z,100724.36
2018-12-12T05:06:23.578Z,100725.41
2018-12-12T05:08:51.062Z,100725.52
2018-12-12T05:11:18.499Z,100718.50
2018-12-12T05:13:46.001Z,100724.55
2018-12-12T05:16:13.424Z,100723.10
2018-12-12T05:18:40.904Z,100725.32
2018-12-12T05:21:08.360Z,100730.12
2018-12-12T05:23:35.815Z,100723.48
2018-12-12T05:26:03.617Z,100733.25
2018-12-12T05:28:31.144Z,100736.67
2018-12-12T05:30:58.987Z,100733.05
2018-12-12T05:33:26.458Z,100728.84
2018-12-12T05:35:53.883Z,100735.80
2018-12-12T05:38:21.321Z,100739.50
2018-12-12T05:40:48.779Z,100736.38
2018-12-12T05:43:16.259Z,100736.23
2018-12-12T05:45:44.122Z,100737.24
2018-12-12T05:48:11.571Z,100739.31
2018-12-12T05:50:39.695Z,100732.41
2018-12-12T05:53:07.130Z,100736.15
2018-12-12T05:55:34.603Z,100742.91
2018-12-12T05:58:02.035Z,100739.55
2018-12-12T06:00:29.454Z,100739.63
2018-12-12T06:02:57.033Z,100754.36
2018-12-12T06:05:24.835Z,100750.00
2018-12-12T06:07:52.269Z,100753.13
2018-12-12T06:10:19.691Z,100759.00
2018-12-12T06:12:47.192Z,100757.72
2018-12-12T06:15:15.351Z,100767.72
2018-12-12T06:17:42.775Z,100765.38
2018-12-12T06:20:10.243Z,100769.23
2018-12-12T06:22:38.093Z,100770.89
2018-12-12T06:25:05.733Z,100765.02
2018-12-12T06:27:33.296Z,100770.03
2018-12-12T06:30:00.751Z,100769.14
2018-12-12T06:32:28.949Z,100773.70
2018-12-12T06:34:56.392Z,100778.36
2018-12-12T06:37:23.844Z,100780.05
2018-12-12T06:39:51.271Z,100784.74
2018-12-12T06:42:18.763Z,100790.36
2018-12-12T06:44:46.195Z,100791.53
2018-12-12T06:47:13.773Z,100787.44
2018-12-12T06:49:41.236Z,100794.84
2018-12-12T06:52:08.727Z,100789.14
2018-12-12T06:54:36.150Z,100789.64
2018-12-12T06:57:03.611Z,100798.02
2018-12-12T06:59:31.067Z,100799.77
2018-12-12T07:01:58.625Z,100798.30
2018-12-12T07:04:26.087Z,100793.91
2018-12-12T07:06:53.543Z,100804.05
2018-12-12T07:09:21.024Z,100796.94
2018-12-12T07:11:48.551Z,100804.94
2018-12-12T07:14:15.993Z,100807.61
2018-12-12T07:16:43.995Z,100809.68
2018-12-12T07:19:11.440Z,100804.94
2018-12-12T07:21:38.904Z,100805.14
2018-12-12T07:24:06.346Z,100807.09
2018-12-12T07:26:33.826Z,100818.05
2018-12-12T07:29:01.384Z,100816.57
2018-12-12T07:31:28.804Z,100820.98
2018-12-12T07:34:00.766Z,100825.51
2018-12-12T07:36:26.073Z,100818.19
2018-12-12T07:38:53.495Z,100826.54
2018-12-12T07:41:20.954Z,100832.92
2018-12-12T07:43:48.440Z,100830.75
2018-12-12T07:46:16.205Z,100828.32
2018-12-12T07:48:43.708Z,100837.08
2018-12-12T07:51:11.150Z,100829.98
2018-12-12T07:53:38.611Z,100833.95
2018-12-12T07:56:06.027Z,100844.35
2018-12-12T07:58:33.522Z,100842.39
2018-12-12T08:01:00.951Z,100856.44
2018-12-12T08:03:28.380Z,100848.22
2018-12-12T08:05:55.803Z,100843.11
2018-12-12T08:08:23.238Z,100847.36
2018-12-12T08:10:50.703Z,100849.61
2018-12-12T08:13:18.160Z,100854.13
2018-12-12T08:15:46.067Z,100857.34
2018-12-12T08:18:13.484Z,100861.22
2018-12-12T08:20:40.964Z,100866.16
2018-12-12T08:23:08.948Z,100875.73
2018-12-12T08:25:37.817Z,100876.37
2018-12-12T08:28:05.244Z,100875.39
2018-12-12T08:30:32.722Z,100883.97
2018-12-12T08:33:00.171Z,100877.64
2018-12-12T08:35:27.603Z,100882.16
2018-12-12T08:37:55.030Z,100885.63
2018-12-12T08:40:22.559Z,100884.17
2018-12-12T08:42:50.038Z,100893.62
2018-12-12T08:45:17.479Z,100891.63
2018-12-12T08:47:44.927Z,100895.50
2018-12-12T08:50:12.397Z,100897.76
2018-12-12T08:52:39.847Z,100901.71
2018-12-12T08:55:07.390Z,100904.06
2018-12-12T08:57:34.864Z,100908.39
2018-12-12T09:00:02.306Z,100906.13
2018-12-12T09:02:30.512Z,100909.06
2018-12-12T09:04:57.935Z,100908.95
2018-12-12T09:07:25.370Z,100906.34
2018-12-12T09:09:52.863Z,100916.39
2018-12-12T09:12:20.326Z,100913.42
2018-12-12T09:14:47.789Z,100912.42
2018-12-12T09:17:16.344Z,100921.22
2018-12-12T09:19:43.823Z,100923.20
2018-12-12T09:22:11.247Z,100922.16
2018-12-12T09:24:38.739Z,100928.64
2018-12-12T09:27:06.157Z,100928.27
2018-12-12T09:29:33.594Z,100925.59
2018-12-12T09:32:01.083Z,100924.70
2018-12-12T09:34:28.607Z,100925.84
2018-12-12T09:36:56.032Z,100926.61
2018-12-12T09:39:23.455Z,100927.83
2018-12-12T09:41:51.334Z,100934.92
2018-12-12T09:44:18.810Z,100932.63
2018-12-12T09:46:46.251Z,100935.75
2018-12-12T09:49:13.684Z,100934.74
2018-12-12T09:51:41.113Z,100941.01
2018-12-12T09:54:08.598Z,100942.41
2018-12-12T09:56:36.095Z,100935.52
2018-12-12T09:59:03.563Z,100943.56
2018-12-12T10:01:31.010Z,100937.95
2018-12-12T10:03:58.435Z,100933.77
2018-12-12T10:06:25.926Z,100929.36
2018-12-12T10:08:53.365Z,100937.95
2018-12-12T10:11:20.848Z,100934.88
2018-12-12T10:13:48.306Z,100939.77
2018-12-12T10:16:15.756Z,100932.00
2018-12-12T10:18:43.227Z,100930.33
2018-12-12T10:21:10.671Z,100932.68
2018-12-12T10:23:38.098Z,100937.38
2018-12-12T10:26:05.537Z,100929.13
2018-12-12T10:28:32.947Z,100932.89
2018-12-12T10:31:00.399Z,100938.20
2018-12-12T10:33:27.959Z,100940.87
2018-12-12T10:35:55.418Z,100936.84
2018-12-12T10:38:22.838Z,100945.66
2018-12-12T10:40:50.279Z,100947.34
2018-12-12T10:43:17.694Z,100945.02
2018-12-12T10:45:45.125Z,100948.73
2018-12-12T10:48:12.555Z,100951.56
2018-12-12T10:50:40.069Z,100958.27
2018-12-12T10:53:07.519Z,100952.26
2018-12-12T10:55:34.974Z,100945.48
2018-12-12T10:58:02.421Z,100938.44
2018-12-12T11:00:29.915Z,100946.45
2018-12-12T11:03:01.540Z,100947.08
2018-12-12T11:05:29.216Z,100945.73
2018-12-12T11:07:56.808Z,100944.25
2018-12-12T11:10:25.075Z,100953.98
2018-12-12T11:12:52.616Z,100946.00
2018-12-12T11:15:20.074Z,100951.41
2018-12-12T11:17:47.524Z,100959.30
2018-12-12T11:20:14.978Z,100954.48
2018-12-12T11:22:42.407Z,100954.30
2018-12-12T11:25:09.899Z,100953.91
2018-12-12T11:27:37.319Z,100953.95
2018-12-12T11:30:04.780Z,100953.57
2018-12-12T11:32:32.430Z,100953.64
2018-12-12T11:34:59.948Z,100955.12
2018-12-12T11:37:27.723Z,100951.47
2018-12-12T11:39:55.143Z,100950.20
2018-12-12T11:42:22.655Z,100949.69
2018-12-12T11:44:50.175Z,100956.91
2018-12-12T11:47:17.643Z,100951.73
2018-12-12T11:49:45.068Z,100955.45
2018-12-12T11:52:12.507Z,100957.25
2018-12-12T11:54:39.973Z,100956.09
2018-12-12T11:57:08.456Z,100967.59
2018-12-12T11:59:35.867Z,100970.16
2018-12-12T12:02:03.547Z,100960.93
2018-12-12T12:04:31.326Z,100959.69
2018-12-12T12:06:58.762Z,100967.23
2018-12-12T12:09:26.284Z,100967.74
2018-12-12T12:11:53.720Z,100970.09
2018-12-12T12:14:21.142Z,100964.45
2018-12-12T12:16:48.655Z,100966.00
2018-12-12T12:19:16.110Z,100968.30
2018-12-12T12:21:43.535Z,100958.32
2018-12-12T12:24:10.958Z,100973.67
2018-12-12T12:26:38.438Z,100975.22
2018-12-12T12:29:06.095Z,100964.80
2018-12-12T12:31:33.667Z,100969.13
2018-12-12T12:34:03.321Z,100968.56
2018-12-12T12:36:30.527Z,100970.61
2018-12-12T12:38:57.962Z,100967.02
2018-12-12T12:41:25.388Z,100965.55
2018-12-12T12:43:52.802Z,100966.78
2018-12-12T12:46:20.222Z,100962.22
2018-12-12T12:48:47.637Z,100966.20
2018-12-12T12:51:15.075Z,100962.03
2018-12-12T12:53:42.501Z,100959.47
2018-12-12T12:56:09.922Z,100961.33
2018-12-12T12:58:37.356Z,100963.65
2018-12-12T13:01:04.781Z,100964.35
2018-12-12T13:03:32.217Z,100964.92
2018-12-12T13:05:59.667Z,100969.25
2018-12-12T13:08:27.088Z,100964.89
2018-12-12T13:10:54.520Z,100959.41
2018-12-12T13:13:22.126Z,100958.33
2018-12-12T13:15:49.827Z,100961.58
2018-12-12T13:18:17.294Z,100970.55
2018-12-12T13:20:44.720Z,100971.05
2018-12-12T13:23:12.134Z,100972.91
2018-12-12T13:25:39.562Z,100979.98
2018-12-12T13:28:06.987Z,100971.86
2018-12-12T13:30:34.420Z,100969.63
2018-12-12T13:33:01.847Z,100962.99
2018-12-12T13:35:29.266Z,100970.61
2018-12-12T13:37:56.704Z,100975.02
2018-12-12T13:40:24.130Z,100970.80
2018-12-12T13:42:51.554Z,100980.38
2018-12-12T13:45:19.040Z,100980.27
2018-12-12T13:47:46.455Z,100985.25
2018-12-12T13:50:13.880Z,100989.27
2018-12-12T13:52:41.306Z,100989.09
2018-12-12T13:55:08.816Z,100990.59
2018-12-12T13:57:36.242Z,100990.87
2018-12-12T14:00:03.664Z,100991.44
2018-12-12T14:02:31.087Z,100996.02
2018-12-12T14:04:58.505Z,100999.41
2018-12-12T14:07:25.935Z,100998.46
2018-12-12T14:09:53.405Z,100990.59
2018-12-12T14:12:20.840Z,100992.61
2018-12-12T14:14:48.263Z,100989.14
2018-12-12T14:17:15.716Z,100983.76
2018-12-12T14:19:43.159Z,100984.11
2018-12-12T14:22:10.600Z,100992.39
2018-12-12T14:24:38.036Z,100986.70
2018-12-12T14:27:05.476Z,100986.75
2018-12-12T14:29:32.895Z,100987.17
2018-12-12T14:32:00.332Z,100989.78
2018-12-12T14:34:29.334Z,100988.98
2018-12-12T14:36:56.981Z,100994.69
2018-12-12T14:39:24.432Z,100998.22
2018-12-12T14:41:51.860Z,101002.56
2018-12-12T14:44:19.275Z,101005.34
2018-12-12T14:46:46.717Z,101005.67
2018-12-12T14:49:14.142Z,101007.72
2018-12-12T14:51:41.571Z,101009.61
2018-12-12T14:54:08.989Z,101004.91
2018-12-12T14:56:36.426Z,101003.52
2018-12-12T14:59:03.844Z,101000.59
2018-12-12T15:01:31.272Z,100996.80
2018-12-12T15:03:58.695Z,100999.02
2018-12-12T15:06:26.143Z,100998.58
2018-12-12T15:08:53.582Z,101009.70
2018-12-12T15:11:21.007Z,101007.53
2018-12-12T15:13:48.453Z,101014.55
2018-12-12T15:16:15.869Z,101015.66
2018-12-12T15:18:43.297Z,101022.12
2018-12-12T15:21:10.748Z,101016.00
2018-12-12T15:23:38.188Z,101021.41
2018-12-12T15:26:05.616Z,101017.16
2018-12-12T15:28:33.049Z,101017.53
2018-12-12T15:31:00.475Z,101021.75
2018-12-12T15:33:27.896Z,101022.55
2018-12-12T15:35:55.328Z,101020.77
2018-12-12T15:38:22.760Z,101026.63
2018-12-12T15:40:50.183Z,101023.31
2018-12-12T15:43:17.613Z,101033.91
2018-12-12T15:45:45.032Z,101032.23
2018-12-12T15:48:12.468Z,101030.80
2018-12-12T15:50:39.883Z,101037.91
2018-12-12T15:53:07.322Z,101034.03
2018-12-12T15:55:34.751Z,101043.73
2018-12-12T15:58:02.185Z,101044.25
2018-12-12T16:00:29.859Z,101039.62
2018-12-12T16:02:57.336Z,101044.41
2018-12-12T16:05:24.760Z,101048.33
2018-12-12T16:07:52.193Z,101049.78
2018-12-12T16:10:19.625Z,101050.12
2018-12-12T16:12:47.132Z,101042.70
2018-12-12T16:15:14.561Z,101047.64
2018-12-12T16:17:41.995Z,101056.09
2018-12-12T16:20:09.423Z,101050.47
2018-12-12T16:22:36.850Z,101053.53
2018-12-12T16:25:04.282Z,101060.09
2018-12-12T16:27:31.719Z,101064.98
2018-12-12T16:29:59.134Z,101059.37
2018-12-12T16:32:26.577Z,101067.37
2018-12-12T16:34:55.791Z,101061.92
2018-12-12T16:37:23.413Z,101062.52
2018-12-12T16:39:50.856Z,101065.83
2018-12-12T16:42:18.283Z,101069.08
2018-12-12T16:44:45.724Z,101068.59
2018-12-12T16:47:13.160Z,101065.16
2018-12-12T16:49:40.607Z,101072.31
2018-12-12T16:52:08.037Z,101071.36
2018-12-12T16:54:35.479Z,101080.94
2018-12-12T16:57:02.922Z,101074.48
2018-12-12T16:59:30.430Z,101073.74
2018-12-12T17:01:57.871Z,101080.03
2018-12-12T17:04:25.292Z,101065.06
2018-12-12T17:06:52.720Z,101078.45
2018-12-12T17:09:20.158Z,101072.94
2018-12-12T17:11:47.583Z,101065.62
2018-12-12T17:14:15.032Z,101066.28
2018-12-12T17:16:42.451Z,101071.67
2018-12-12T17:19:09.887Z,101059.34
2018-12-12T17:21:37.327Z,101064.45
2018-12-12T17:24:04.764Z,101061.86
2018-12-12T17:26:32.202Z,101060.77
2018-12-12T17:28:59.640Z,101060.47
2018-12-12T17:31:27.068Z,101065.86
2018-12-12T17:33:54.503Z,101060.92
2018-12-12T17:36:21.932Z,101060.98
2018-12-12T17:38:49.368Z,101072.06
2018-12-12T17:41:16.814Z,101073.48
2018-12-12T17:43:44.249Z,101061.97
2018-12-12T17:46:11.685Z,101074.37
2018-12-12T17:48:39.106Z,101073.94
2018-12-12T17:51:06.540Z,101068.16
2018-12-12T17:53:33.984Z,101073.98
2018-12-12T17:56:01.415Z,101071.06
2018-12-12T17:58:28.843Z,101075.14
2018-12-12T18:00:56.307Z,101080.19
2018-12-12T18:03:23.743Z,101079.13
2018-12-12T18:05:51.175Z,101072.31
2018-12-12T18:08:18.699Z,101082.34
2018-12-12T18:10:46.123Z,101074.45
2018-12-12T18:13:13.550Z,101073.38
2018-12-12T18:15:40.982Z,101080.63
2018-12-12T18:18:08.460Z,101078.41
2018-12-12T18:20:35.893Z,101077.97
2018-12-12T18:23:03.362Z,101087.52
2018-12-12T18:25:30.951Z,101082.18
2018-12-12T18:27:58.380Z,101081.63
2018-12-12T18:30:25.819Z,101093.66
2018-12-12T18:32:53.336Z,101094.27
2018-12-12T18:35:21.947Z,101090.75
2018-12-12T18:37:49.570Z,101086.18
2018-12-12T18:40:17.022Z,101093.88
2018-12-12T18:42:44.448Z,101098.63
2018-12-12T18:45:11.891Z,101104.28
2018-12-12T18:47:39.331Z,101101.41
2018-12-12T18:50:06.777Z,101100.31
2018-12-12T18:52:35.124Z,101099.95
2018-12-12T18:55:02.628Z,101099.66
2018-12-12T18:57:30.065Z,101095.03
2018-12-12T18:59:57.493Z,101099.94
2018-12-12T19:02:25.002Z,101103.39
2018-12-12T19:04:52.455Z,101101.23
2018-12-12T19:07:20.283Z,101102.26
2018-12-12T19:09:47.799Z,101115.55
2018-12-12T19:12:15.339Z,101109.30
2018-12-12T19:14:48.247Z,101110.86
2018-12-12T19:17:15.712Z,101108.49
2018-12-12T19:19:43.244Z,101115.45
2018-12-12T19:22:10.694Z,101112.02
2018-12-12T19:24:38.175Z,101111.70
2018-12-12T19:27:05.606Z,101120.19
2018-12-12T19:29:33.174Z,101120.35
2018-12-12T19:32:00.767Z,101123.81
2018-12-12T19:34:28.199Z,101123.03
2018-12-12T19:36:55.626Z,101121.45
2018-12-12T19:39:23.115Z,101139.40
2018-12-12T19:41:50.548Z,101131.58
2018-12-12T19:44:18.143Z,101125.08
2018-12-12T19:46:45.791Z,101122.58
2018-12-12T19:49:13.254Z,101122.37
2018-12-12T19:51:40.713Z,101123.55
2018-12-12T19:54:08.151Z,101130.42
2018-12-12T19:56:35.591Z,101129.91
2018-12-12T19:59:03.048Z,101130.66
2018-12-12T20:01:30.493Z,101131.09
2018-12-12T20:03:58.009Z,101123.49
2018-12-12T20:06:25.447Z,101127.38
2018-12-12T20:08:52.871Z,101119.33
2018-12-12T20:11:20.295Z,101120.33
2018-12-12T20:13:48.188Z,101114.69
2018-12-12T20:16:15.687Z,101126.05
2018-12-12T20:18:43.121Z,101127.36
2018-12-12T20:21:10.551Z,101131.05
2018-12-12T20:23:37.984Z,101137.52
2018-12-12T20:26:05.409Z,101138.09
2018-12-12T20:28:32.826Z,101141.53
2018-12-12T20:31:00.264Z,101132.84
2018-12-12T20:33:27.700Z,101135.76
2018-12-12T20:35:55.131Z,101133.45
2018-12-12T20:38:22.571Z,101132.31
2018-12-12T20:40:50.002Z,101140.21
2018-12-12T20:43:17.423Z,101136.39
2018-12-12T20:45:44.884Z,101133.36
2018-12-12T20:48:12.327Z,101135.61
2018-12-12T20:50:39.765Z,101132.83
2018-12-12T20:53:07.187Z,101144.25
2018-12-12T20:55:34.630Z,101139.47
2018-12-12T20:58:02.051Z,101150.02
2018-12-12T21:00:29.499Z,101144.06
2018-12-12T21:02:56.969Z,101140.11
2018-12-12T21:05:24.411Z,101133.35
2018-12-12T21:07:51.866Z,101139.31
2018-12-12T21:10:19.301Z,101141.27
2018-12-12T21:12:46.718Z,101134.36
2018-12-12T21:15:14.143Z,101132.42
2018-12-12T21:17:41.582Z,101129.76
2018-12-12T21:20:09.007Z,101131.77
2018-12-12T21:22:36.449Z,101132.21
2018-12-12T21:25:03.900Z,101135.39
2018-12-12T21:27:31.330Z,101136.36
2018-12-12T21:29:58.756Z,101136.97
2018-12-12T21:32:26.183Z,101131.26
2018-12-12T21:34:53.608Z,101126.92
2018-12-12T21:37:21.042Z,101128.86
2018-12-12T21:39:48.479Z,101130.23
2018-12-12T21:42:15.916Z,101127.25
2018-12-12T21:44:43.340Z,101134.86
2018-12-12T21:47:10.775Z,101135.23
2018-12-12T21:49:38.199Z,101135.14
2018-12-12T21:52:05.641Z,101126.58
2018-12-12T21:54:33.051Z,101126.14
2018-12-12T21:57:00.479Z,101125.69
2018-12-12T21:59:27.923Z,101121.48
2018-12-12T22:01:55.383Z,101129.68
2018-12-12T22:04:22.815Z,101123.61
2018-12-12T22:06:50.244Z,101126.67
2018-12-12T22:09:17.683Z,101120.86
2018-12-12T22:11:45.111Z,101128.05
2018-12-12T22:14:12.539Z,101123.42
2018-12-12T22:16:39.971Z,101124.30
2018-12-12T22:19:07.474Z,101135.92
2018-12-12T22:21:34.919Z,101133.66
2018-12-12T22:24:02.347Z,101127.39
2018-12-12T22:26:29.770Z,101131.95
2018-12-12T22:28:57.207Z,101131.73
2018-12-12T22:31:24.640Z,101127.81
2018-12-12T22:33:52.095Z,101135.35
2018-12-12T22:36:19.523Z,101137.13
2018-12-12T22:38:46.959Z,101142.23
2018-12-12T22:41:14.419Z,101130.73
2018-12-12T22:43:41.879Z,101139.66
2018-12-12T22:46:09.311Z,101135.69
2018-12-12T22:48:36.744Z,101134.27
2018-12-12T22:51:04.187Z,101130.16
2018-12-12T22:53:31.624Z,101136.38
2018-12-12T22:55:59.052Z,101134.27
2018-12-12T22:58:26.491Z,101131.95
2018-12-12T23:01:02.377Z,101135.78
2018-12-12T23:03:29.814Z,101132.47
2018-12-12T23:05:57.570Z,101133.55
2018-12-12T23:08:25.067Z,101130.24
2018-12-12T23:10:52.562Z,101128.13
2018-12-12T23:13:20.043Z,101135.54
2018-12-12T23:15:47.486Z,101134.93
2018-12-12T23:18:14.920Z,101136.91
2018-12-12T23:20:42.334Z,101125.52
2018-12-12T23:23:09.792Z,101129.20
2018-12-12T23:25:37.294Z,101132.27
2018-12-12T23:28:04.731Z,101136.73
2018-12-12T23:30:32.159Z,101132.63
2018-12-12T23:32:59.675Z,101131.66
2018-12-12T23:35:27.105Z,101124.82
2018-12-12T23:37:54.618Z,101135.26
2018-12-12T23:40:22.143Z,101127.39
2018-12-12T23:42:49.566Z,101134.28
2018-12-12T23:45:17.660Z,101131.22
2018-12-12T23:47:45.136Z,101136.95
2018-12-12T23:50:12.582Z,101126.91
2018-12-12T23:52:40.047Z,101126.16
2018-12-12T23:55:07.474Z,101124.38
2018-12-12T23:57:34.911Z,101122.05
